PWSweather.com
Personal Weather Stations
Station Observations
KNYSALTS1
Hessville, Fort Plain, NY

HessvilleFort Plain, NY

Lat: 42.86430704, Lon: -74.72141266

Elevation: 1041

Station Type: Davis Vantage Pro2 Plus

https://indiantrailweather.com

Latest ConditionsUpdated 5:10:09 PM EST Sunday, Jan 19, 2020
Currently Today's Max Today's Min Today's Average
Temperature 20.6°F-6.3°C 32.4°F0.2°C 17.5°F-8.1°C 27.3°F-2.6°C
Dew Point 15.7°F-9.1°C 29.5°F-1.4°C 15.6°F-9.1°C 23.5°F-4.7°C
Winds 10.4 mph WNW16.7 kmh WNW 17.3 mph -27.8 kmh - - 9.3 mph 15.0 kmh
Wind Gusts 16.1 mph25.9 kmh 29.9 mph48.1 kmh - -
Humidity 81% 96% 79% 86%
Pressure 29.84 in1010.5 mb 29.84 in1010.5 mb 29.58 in1001.7 mb -
Precipitation - 0.01 in0.3 mm - -
Hour Temp Dew Point Humidity Winds Wind Gusts Pressure Precip Precip Rate Daily Precip Total
05:10 PM 20.6°F-6.3°C 15.7°F-9.1°C 81% 10.4 mph WNW16.7 kmh WNW 16.1 mph25.9 kmh 29.84 in1010.5 mb - 0.00 in0.0 mm 0.01 in0.3 mm
05:00 PM 20.8°F-6.2°C 15.9°F-8.9°C 81% 8.1 mph WNW13.0 kmh WNW 16.1 mph25.9 kmh 29.84 in1010.5 mb - 0.00 in0.0 mm 0.01 in0.3 mm
04:50 PM 21.0°F-6.1°C 15.8°F-9.0°C 80% 11.5 mph WNW18.5 kmh WNW 16.1 mph25.9 kmh 29.83 in1010.2 mb - 0.00 in0.0 mm 0.01 in0.3 mm
04:40 PM 21.5°F-5.8°C 16.3°F-8.7°C 80% 16.1 mph W25.9 kmh W 25.3 mph40.7 kmh 29.82 in1009.8 mb - 0.00 in0.0 mm 0.01 in0.3 mm
04:30 PM 22.0°F-5.6°C 16.8°F-8.4°C 80% 11.5 mph WNW18.5 kmh WNW 16.1 mph25.9 kmh 29.82 in1009.8 mb - 0.00 in0.0 mm 0.01 in0.3 mm
04:20 PM 22.0°F-5.6°C 17.1°F-8.3°C 81% 10.4 mph W16.7 kmh W 20.7 mph33.3 kmh 29.82 in1009.8 mb - 0.00 in0.0 mm 0.01 in0.3 mm
04:10 PM 22.1°F-5.5°C 17.4°F-8.1°C 82% 12.7 mph NW20.4 kmh NW 21.9 mph35.2 kmh 29.82 in1009.8 mb - 0.00 in0.0 mm 0.01 in0.3 mm
04:00 PM 22.6°F-5.2°C 17.9°F-7.8°C 82% 9.2 mph WNW14.8 kmh WNW 12.7 mph20.4 kmh 29.81 in1009.5 mb - 0.00 in0.0 mm 0.01 in0.3 mm
03:50 PM 22.9°F-5.1°C 18.3°F-7.6°C 82% 6.9 mph NW11.1 kmh NW 12.7 mph20.4 kmh 29.80 in1009.1 mb - 0.00 in0.0 mm 0.01 in0.3 mm
03:40 PM 23.3°F-4.8°C 18.6°F-7.4°C 82% 9.2 mph NW14.8 kmh NW 19.6 mph31.5 kmh 29.80 in1009.1 mb - 0.00 in0.0 mm 0.01 in0.3 mm
03:30 PM 23.4°F-4.8°C 18.4°F-7.6°C 81% 17.3 mph W27.8 kmh W 24.2 mph38.9 kmh 29.79 in1008.8 mb - 0.00 in0.0 mm 0.01 in0.3 mm
03:20 PM 23.8°F-4.6°C 18.8°F-7.3°C 81% 16.1 mph WNW25.9 kmh WNW 29.9 mph48.1 kmh 29.78 in1008.5 mb - 0.00 in0.0 mm 0.01 in0.3 mm
03:10 PM 24.4°F-4.2°C 19.4°F-7.0°C 81% 12.7 mph WNW20.4 kmh WNW 21.9 mph35.2 kmh 29.78 in1008.5 mb - 0.00 in0.0 mm 0.01 in0.3 mm
03:00 PM 25.1°F-3.8°C 20.0°F-6.7°C 81% 10.4 mph WNW16.7 kmh WNW 19.6 mph31.5 kmh 29.77 in1008.1 mb - 0.00 in0.0 mm 0.01 in0.3 mm
02:50 PM 25.3°F-3.7°C 20.0°F-6.7°C 80% 9.2 mph WNW14.8 kmh WNW 19.6 mph31.5 kmh 29.76 in1007.8 mb - 0.00 in0.0 mm 0.01 in0.3 mm
02:40 PM 25.6°F-3.6°C 20.3°F-6.5°C 80% 12.7 mph WNW20.4 kmh WNW 17.3 mph27.8 kmh 29.76 in1007.8 mb - 0.00 in0.0 mm 0.01 in0.3 mm
02:30 PM 25.9°F-3.4°C 20.9°F-6.2°C 81% 11.5 mph WNW18.5 kmh WNW 18.4 mph29.6 kmh 29.75 in1007.5 mb - 0.00 in0.0 mm 0.01 in0.3 mm
02:20 PM 26.2°F-3.2°C 21.4°F-5.9°C 82% 9.2 mph WNW14.8 kmh WNW 15.0 mph24.1 kmh 29.75 in1007.5 mb - 0.00 in0.0 mm 0.01 in0.3 mm
02:10 PM 26.2°F-3.2°C 21.7°F-5.7°C 83% 11.5 mph WNW18.5 kmh WNW 15.0 mph24.1 kmh 29.75 in1007.5 mb - 0.00 in0.0 mm 0.01 in0.3 mm
02:00 PM 26.6°F-3.0°C 22.2°F-5.4°C 83% 13.8 mph W22.2 kmh W 19.6 mph31.5 kmh 29.74 in1007.1 mb - 0.00 in0.0 mm 0.01 in0.3 mm
01:50 PM 27.1°F-2.7°C 23.2°F-4.9°C 85% 11.5 mph WNW18.5 kmh WNW 17.3 mph27.8 kmh 29.74 in1007.1 mb - 0.00 in0.0 mm 0.01 in0.3 mm
01:40 PM 27.4°F-2.6°C 23.5°F-4.7°C 85% 9.2 mph W14.8 kmh W 19.6 mph31.5 kmh 29.73 in1006.8 mb - 0.00 in0.0 mm 0.01 in0.3 mm
01:30 PM 27.5°F-2.5°C 23.6°F-4.7°C 85% 10.4 mph WNW16.7 kmh WNW 20.7 mph33.3 kmh 29.73 in1006.8 mb - 0.00 in0.0 mm 0.01 in0.3 mm
01:20 PM 27.8°F-2.3°C 24.2°F-4.3°C 86% 10.4 mph WNW16.7 kmh WNW 11.5 mph18.5 kmh 29.73 in1006.8 mb - 0.00 in0.0 mm 0.01 in0.3 mm
01:10 PM 28.2°F-2.1°C 24.5°F-4.2°C 86% 10.4 mph WNW16.7 kmh WNW 17.3 mph27.8 kmh 29.73 in1006.8 mb - 0.00 in0.0 mm 0.01 in0.3 mm
01:00 PM 28.2°F-2.1°C 24.6°F-4.1°C 86% 9.2 mph WNW14.8 kmh WNW 13.8 mph22.2 kmh 29.72 in1006.4 mb - 0.00 in0.0 mm 0.01 in0.3 mm
12:50 PM 28.2°F-2.1°C 24.6°F-4.1°C 86% 11.5 mph WNW18.5 kmh WNW 25.3 mph40.7 kmh 29.72 in1006.4 mb - 0.00 in0.0 mm 0.01 in0.3 mm
12:40 PM 28.2°F-2.1°C 24.8°F-4.0°C 87% 11.5 mph WNW18.5 kmh WNW 19.6 mph31.5 kmh 29.71 in1006.1 mb - 0.00 in0.0 mm 0.01 in0.3 mm
12:30 PM 28.6°F-1.9°C 25.2°F-3.8°C 87% 9.2 mph NW14.8 kmh NW 19.6 mph31.5 kmh 29.71 in1006.1 mb - 0.00 in0.0 mm 0.01 in0.3 mm
12:20 PM 28.6°F-1.9°C 25.8°F-3.4°C 89% 8.1 mph NW13.0 kmh NW 13.8 mph22.2 kmh 29.71 in1006.1 mb - 0.00 in0.0 mm 0.01 in0.3 mm
12:10 PM 28.8°F-1.8°C 26.2°F-3.2°C 90% 5.8 mph NW9.3 kmh NW 8.1 mph13.0 kmh 29.70 in1005.8 mb - 0.00 in0.0 mm 0.01 in0.3 mm
12:00 PM 28.7°F-1.8°C 26.1°F-3.3°C 90% 8.1 mph NW13.0 kmh NW 12.7 mph20.4 kmh 29.70 in1005.8 mb - 0.00 in0.0 mm 0.01 in0.3 mm
11:50 AM 28.9°F-1.7°C 25.8°F-3.4°C 88% 11.5 mph NW18.5 kmh NW 18.4 mph29.6 kmh 29.70 in1005.8 mb - 0.00 in0.0 mm 0.01 in0.3 mm
11:40 AM 30.1°F-1.1°C 26.4°F-3.1°C 86% 5.8 mph NW9.3 kmh NW 10.4 mph16.7 kmh 29.69 in1005.4 mb - 0.00 in0.0 mm 0.01 in0.3 mm
11:30 AM 31.0°F-0.6°C 26.2°F-3.2°C 82% 16.1 mph WNW25.9 kmh WNW 27.6 mph44.4 kmh 29.69 in1005.4 mb - 0.00 in0.0 mm 0.01 in0.3 mm
11:20 AM 31.5°F-0.3°C 26.4°F-3.1°C 81% 12.7 mph WNW20.4 kmh WNW 20.7 mph33.3 kmh 29.68 in1005.1 mb - 0.00 in0.0 mm 0.01 in0.3 mm
11:10 AM 32.0°F0.0°C 26.5°F-3.1°C 80% 10.4 mph W16.7 kmh W 19.6 mph31.5 kmh 29.68 in1005.1 mb - 0.00 in0.0 mm 0.01 in0.3 mm
11:00 AM 32.0°F0.0°C 26.5°F-3.1°C 80% 11.5 mph W18.5 kmh W 17.3 mph27.8 kmh 29.68 in1005.1 mb - 0.00 in0.0 mm 0.01 in0.3 mm
10:50 AM 32.2°F0.1°C 26.4°F-3.1°C 79% 16.1 mph W25.9 kmh W 26.5 mph42.6 kmh 29.69 in1005.4 mb - 0.00 in0.0 mm 0.01 in0.3 mm
10:40 AM 32.2°F0.1°C 26.4°F-3.1°C 79% 10.4 mph WNW16.7 kmh WNW 11.5 mph18.5 kmh 29.68 in1005.1 mb - 0.00 in0.0 mm 0.01 in0.3 mm
10:30 AM 32.1°F0.1°C 26.3°F-3.2°C 79% 13.8 mph WNW22.2 kmh WNW 21.9 mph35.2 kmh 29.68 in1005.1 mb - 0.00 in0.0 mm 0.01 in0.3 mm
10:20 AM 31.9°F-0.1°C 26.4°F-3.1°C 80% 17.3 mph W27.8 kmh W 29.9 mph48.1 kmh 29.67 in1004.7 mb - 0.00 in0.0 mm 0.01 in0.3 mm
10:10 AM 31.8°F-0.1°C 26.3°F-3.2°C 80% 9.2 mph W14.8 kmh W 12.7 mph20.4 kmh 29.67 in1004.7 mb - 0.00 in0.0 mm 0.01 in0.3 mm
10:00 AM 31.8°F-0.1°C 26.3°F-3.2°C 80% 17.3 mph W27.8 kmh W 27.6 mph44.4 kmh 29.66 in1004.4 mb - 0.00 in0.0 mm 0.01 in0.3 mm
09:50 AM 31.8°F-0.1°C 26.3°F-3.2°C 80% 11.5 mph W18.5 kmh W 18.4 mph29.6 kmh 29.66 in1004.4 mb - 0.00 in0.0 mm 0.01 in0.3 mm
09:40 AM 31.9°F-0.1°C 26.4°F-3.1°C 80% 11.5 mph W18.5 kmh W 20.7 mph33.3 kmh 29.66 in1004.4 mb - 0.00 in0.0 mm 0.01 in0.3 mm
09:30 AM 31.9°F-0.1°C 26.4°F-3.1°C 80% 15.0 mph WNW24.1 kmh WNW 26.5 mph42.6 kmh 29.65 in1004.1 mb - 0.00 in0.0 mm 0.01 in0.3 mm
09:20 AM 31.9°F-0.1°C 26.4°F-3.1°C 80% 11.5 mph W18.5 kmh W 17.3 mph27.8 kmh 29.65 in1004.1 mb - 0.00 in0.0 mm 0.01 in0.3 mm
09:10 AM 32.0°F0.0°C 26.5°F-3.1°C 80% 12.7 mph W20.4 kmh W 18.4 mph29.6 kmh 29.64 in1003.7 mb - 0.00 in0.0 mm 0.01 in0.3 mm
09:00 AM 32.3°F0.2°C 26.8°F-2.9°C 80% 12.7 mph W20.4 kmh W 20.7 mph33.3 kmh 29.64 in1003.7 mb - 0.00 in0.0 mm 0.01 in0.3 mm
08:50 AM 31.9°F-0.1°C 26.4°F-3.1°C 80% 16.1 mph W25.9 kmh W 27.6 mph44.4 kmh 29.65 in1004.1 mb - 0.00 in0.0 mm 0.01 in0.3 mm
08:40 AM 32.1°F0.1°C 26.9°F-2.8°C 81% 9.2 mph WNW14.8 kmh WNW 15.0 mph24.1 kmh 29.65 in1004.1 mb - 0.00 in0.0 mm 0.01 in0.3 mm
08:30 AM 31.7°F-0.2°C 26.6°F-3.0°C 81% 13.8 mph WNW22.2 kmh WNW 20.7 mph33.3 kmh 29.65 in1004.1 mb - 0.00 in0.0 mm 0.01 in0.3 mm
08:20 AM 31.3°F-0.4°C 26.5°F-3.1°C 82% 6.9 mph W11.1 kmh W 19.6 mph31.5 kmh 29.65 in1004.1 mb - 0.00 in0.0 mm 0.01 in0.3 mm
08:10 AM 31.2°F-0.4°C 26.3°F-3.2°C 82% 11.5 mph WNW18.5 kmh WNW 19.6 mph31.5 kmh 29.64 in1003.7 mb - 0.00 in0.0 mm 0.01 in0.3 mm
08:00 AM 31.8°F-0.1°C 26.9°F-2.8°C 82% 9.2 mph W14.8 kmh W 15.0 mph24.1 kmh 29.64 in1003.7 mb - 0.00 in0.0 mm 0.01 in0.3 mm
07:50 AM 32.0°F0.0°C 26.8°F-2.9°C 81% 13.8 mph WNW22.2 kmh WNW 23.0 mph37.0 kmh 29.64 in1003.7 mb - 0.00 in0.0 mm 0.01 in0.3 mm
07:40 AM 32.1°F0.1°C 26.9°F-2.8°C 81% 10.4 mph WNW16.7 kmh WNW 11.5 mph18.5 kmh 29.63 in1003.4 mb - 0.00 in0.0 mm 0.01 in0.3 mm
07:30 AM 32.2°F0.1°C 27.0°F-2.8°C 81% 13.8 mph WNW22.2 kmh WNW 23.0 mph37.0 kmh 29.63 in1003.4 mb - 0.00 in0.0 mm 0.01 in0.3 mm
07:20 AM 32.2°F0.1°C 27.0°F-2.8°C 81% 12.7 mph WNW20.4 kmh WNW 19.6 mph31.5 kmh 29.63 in1003.4 mb - 0.00 in0.0 mm 0.01 in0.3 mm
07:10 AM 32.1°F0.1°C 27.2°F-2.7°C 82% 11.5 mph WNW18.5 kmh WNW 20.7 mph33.3 kmh 29.62 in1003.0 mb - 0.00 in0.0 mm 0.01 in0.3 mm
07:00 AM 32.1°F0.1°C 27.2°F-2.7°C 82% 15.0 mph WNW24.1 kmh WNW 25.3 mph40.7 kmh 29.62 in1003.0 mb - 0.00 in0.0 mm 0.01 in0.3 mm
06:50 AM 32.4°F0.2°C 27.5°F-2.5°C 82% 17.3 mph WNW27.8 kmh WNW 26.5 mph42.6 kmh 29.61 in1002.7 mb - 0.00 in0.0 mm 0.01 in0.3 mm
06:40 AM 32.4°F0.2°C 27.8°F-2.3°C 83% 16.1 mph W25.9 kmh W 19.6 mph31.5 kmh 29.61 in1002.7 mb - 0.00 in0.0 mm 0.01 in0.3 mm
06:30 AM 32.1°F0.1°C 27.8°F-2.3°C 84% 16.1 mph W25.9 kmh W 25.3 mph40.7 kmh 29.61 in1002.7 mb - 0.00 in0.0 mm 0.01 in0.3 mm
06:20 AM 32.0°F0.0°C 28.6°F-1.9°C 87% 16.1 mph W25.9 kmh W 26.5 mph42.6 kmh 29.61 in1002.7 mb - 0.00 in0.0 mm 0.01 in0.3 mm
06:10 AM 31.8°F-0.1°C 28.9°F-1.7°C 89% 12.7 mph W20.4 kmh W 18.4 mph29.6 kmh 29.61 in1002.7 mb - 0.00 in0.0 mm 0.01 in0.3 mm
06:00 AM 31.8°F-0.1°C 29.2°F-1.6°C 90% 10.4 mph W16.7 kmh W 17.3 mph27.8 kmh 29.61 in1002.7 mb - 0.00 in0.0 mm 0.01 in0.3 mm
05:50 AM 31.9°F-0.1°C 29.3°F-1.5°C 90% 9.2 mph WSW14.8 kmh WSW 21.9 mph35.2 kmh 29.60 in1002.4 mb - 0.00 in0.0 mm 0.01 in0.3 mm
05:40 AM 31.8°F-0.1°C 29.2°F-1.6°C 90% 9.2 mph W14.8 kmh W 16.1 mph25.9 kmh 29.60 in1002.4 mb - 0.00 in0.0 mm 0.01 in0.3 mm
05:30 AM 31.6°F-0.2°C 29.5°F-1.4°C 92% 8.1 mph W13.0 kmh W 12.7 mph20.4 kmh 29.60 in1002.4 mb - 0.00 in0.0 mm 0.01 in0.3 mm
05:20 AM 31.5°F-0.3°C 29.4°F-1.4°C 92% 5.8 mph W9.3 kmh W 8.1 mph13.0 kmh 29.59 in1002.0 mb - 0.00 in0.0 mm 0.01 in0.3 mm
05:10 AM 31.5°F-0.3°C 29.2°F-1.6°C 91% 5.8 mph WSW9.3 kmh WSW 15.0 mph24.1 kmh 29.59 in1002.0 mb - 0.00 in0.0 mm 0.01 in0.3 mm
05:00 AM 31.5°F-0.3°C 29.2°F-1.6°C 91% 8.1 mph WSW13.0 kmh WSW 16.1 mph25.9 kmh 29.59 in1002.0 mb - 0.00 in0.0 mm 0.01 in0.3 mm
04:50 AM 30.9°F-0.6°C 28.6°F-1.9°C 91% 5.8 mph WSW9.3 kmh WSW 18.4 mph29.6 kmh 29.59 in1002.0 mb - 0.00 in0.0 mm 0.01 in0.3 mm
04:40 AM 31.4°F-0.3°C 29.1°F-1.6°C 91% 6.9 mph WSW11.1 kmh WSW 9.2 mph14.8 kmh 29.58 in1001.7 mb - 0.00 in0.0 mm 0.01 in0.3 mm
04:30 AM 31.1°F-0.5°C 28.8°F-1.8°C 91% 6.9 mph WSW11.1 kmh WSW 12.7 mph20.4 kmh 29.58 in1001.7 mb - 0.00 in0.0 mm 0.01 in0.3 mm
04:20 AM 31.0°F-0.6°C 28.7°F-1.8°C 91% 5.8 mph WSW9.3 kmh WSW 11.5 mph18.5 kmh 29.58 in1001.7 mb - 0.00 in0.0 mm 0.01 in0.3 mm
04:10 AM 31.1°F-0.5°C 28.8°F-1.8°C 91% 5.8 mph WSW9.3 kmh WSW 12.7 mph20.4 kmh 29.58 in1001.7 mb - 0.00 in0.0 mm 0.01 in0.3 mm
04:00 AM 31.0°F-0.6°C 28.9°F-1.7°C 92% 8.1 mph WSW13.0 kmh WSW 15.0 mph24.1 kmh 29.58 in1001.7 mb - 0.00 in0.0 mm 0.01 in0.3 mm
03:50 AM 31.0°F-0.6°C 28.9°F-1.7°C 92% 6.9 mph WSW11.1 kmh WSW 15.0 mph24.1 kmh 29.58 in1001.7 mb - 0.00 in0.0 mm 0.01 in0.3 mm
03:40 AM 30.8°F-0.7°C 28.7°F-1.8°C 92% 4.6 mph WSW7.4 kmh WSW 15.0 mph24.1 kmh 29.58 in1001.7 mb - 0.00 in0.0 mm 0.01 in0.3 mm
03:30 AM 30.9°F-0.6°C 29.1°F-1.6°C 93% 5.8 mph SW9.3 kmh SW 16.1 mph25.9 kmh 29.58 in1001.7 mb - 0.00 in0.0 mm 0.01 in0.3 mm
03:20 AM 30.4°F-0.9°C 28.8°F-1.8°C 94% 6.9 mph WSW11.1 kmh WSW 13.8 mph22.2 kmh 29.58 in1001.7 mb - 0.00 in0.0 mm 0.01 in0.3 mm
03:10 AM 29.5°F-1.4°C 28.5°F-1.9°C 96% 4.6 mph W7.4 kmh W 8.1 mph13.0 kmh 29.59 in1002.0 mb - 0.00 in0.0 mm 0.01 in0.3 mm
03:00 AM 27.0°F-2.8°C 26.0°F-3.3°C 96% 4.6 mph WSW7.4 kmh WSW 6.9 mph11.1 kmh 29.59 in1002.0 mb - 0.00 in0.0 mm 0.01 in0.3 mm
02:50 AM 20.5°F-6.4°C 18.8°F-7.3°C 93% 3.5 mph SW5.6 kmh SW 9.2 mph14.8 kmh 29.60 in1002.4 mb - 0.00 in0.0 mm 0.01 in0.3 mm
02:40 AM 18.9°F-7.3°C 17.0°F-8.3°C 92% 2.3 mph SW3.7 kmh SW 3.5 mph5.6 kmh 29.59 in1002.0 mb - 0.00 in0.0 mm 0.01 in0.3 mm
02:30 AM 18.9°F-7.3°C 17.0°F-8.3°C 92% 2.3 mph E3.7 kmh E 3.5 mph5.6 kmh 29.60 in1002.4 mb - 0.00 in0.0 mm 0.01 in0.3 mm
02:20 AM 18.9°F-7.3°C 17.0°F-8.3°C 92% 3.5 mph E5.6 kmh E 4.6 mph7.4 kmh 29.60 in1002.4 mb - 0.00 in0.0 mm 0.01 in0.3 mm
02:10 AM 18.6°F-7.4°C 16.6°F-8.6°C 92% Calm Calm 2.3 mph3.7 kmh 29.61 in1002.7 mb - 0.00 in0.0 mm 0.01 in0.3 mm
02:00 AM 18.4°F-7.6°C 16.4°F-8.7°C 92% 3.5 mph SE5.6 kmh SE 4.6 mph7.4 kmh 29.61 in1002.7 mb - 0.00 in0.0 mm 0.01 in0.3 mm
01:50 AM 18.3°F-7.6°C 16.4°F-8.7°C 92% 4.6 mph E7.4 kmh E 5.8 mph9.3 kmh 29.61 in1002.7 mb - 0.00 in0.0 mm 0.01 in0.3 mm
01:40 AM 18.2°F-7.7°C 16.3°F-8.7°C 92% 3.5 mph E5.6 kmh E 3.5 mph5.6 kmh 29.61 in1002.7 mb - 0.00 in0.0 mm 0.01 in0.3 mm
01:30 AM 18.3°F-7.6°C 16.4°F-8.7°C 92% 4.6 mph E7.4 kmh E 5.8 mph9.3 kmh 29.61 in1002.7 mb - 0.01 in0.3 mm 0.01 in0.3 mm
01:20 AM 18.1°F-7.7°C 16.2°F-8.8°C 92% 3.5 mph SE5.6 kmh SE 5.8 mph9.3 kmh 29.61 in1002.7 mb - 0.01 in0.3 mm 0.01 in0.3 mm
01:10 AM 18.1°F-7.7°C 16.2°F-8.8°C 92% 2.3 mph S3.7 kmh S 3.5 mph5.6 kmh 29.61 in1002.7 mb - 0.01 in0.3 mm 0.01 in0.3 mm
01:00 AM 17.9°F-7.8°C 16.0°F-8.9°C 92% 2.3 mph SW3.7 kmh SW 4.6 mph7.4 kmh 29.62 in1003.0 mb - 0.01 in0.3 mm 0.01 in0.3 mm
12:50 AM 17.8°F-7.9°C 15.9°F-8.9°C 92% 1.2 mph SSW1.9 kmh SSW 3.5 mph5.6 kmh 29.62 in1003.0 mb - 0.01 in0.3 mm 0.01 in0.3 mm
12:40 AM 17.9°F-7.8°C 16.0°F-8.9°C 92% 3.5 mph SW5.6 kmh SW 5.8 mph9.3 kmh 29.63 in1003.4 mb - 0.01 in0.3 mm 0.01 in0.3 mm
12:30 AM 17.7°F-7.9°C 15.8°F-9.0°C 92% 1.2 mph SSW1.9 kmh SSW 3.5 mph5.6 kmh 29.63 in1003.4 mb - 0.00 in0.0 mm 0.02 in0.5 mm
12:20 AM 17.6°F-8.0°C 15.7°F-9.1°C 92% 1.2 mph W1.9 kmh W 3.5 mph5.6 kmh 29.64 in1003.7 mb - 0.00 in0.0 mm 0.02 in0.5 mm
12:10 AM 17.5°F-8.1°C 15.6°F-9.1°C 92% 2.3 mph NE3.7 kmh NE 4.6 mph7.4 kmh 29.64 in1003.7 mb - 0.01 in0.3 mm 0.02 in0.5 mm
12:00 AM 17.5°F-8.1°C 15.6°F-9.1°C 92% 2.3 mph NE3.7 kmh NE 4.6 mph7.4 kmh 29.64 in1003.7 mb - 0.01 in0.3 mm 0.01 in0.3 mm